createdAt,value
2018-08-04T00:01:08.895Z,7.50
2018-08-04T00:03:38.481Z,7.20
2018-08-04T00:06:08.083Z,8.50
2018-08-04T00:08:37.706Z,8.30
2018-08-04T00:11:07.292Z,7.90
2018-08-04T00:13:36.951Z,8.00
2018-08-04T00:16:06.532Z,8.13
2018-08-04T00:18:36.177Z,8.33
2018-08-04T00:21:05.775Z,7.83
2018-08-04T00:23:35.412Z,8.13
2018-08-04T00:26:04.737Z,8.33
2018-08-04T00:28:34.116Z,8.50
2018-08-04T00:31:03.090Z,8.13
2018-08-04T00:33:32.325Z,8.30
2018-08-04T00:36:01.629Z,8.13
2018-08-04T00:38:30.974Z,8.40
2018-08-04T00:41:00.308Z,8.00
2018-08-04T00:43:29.652Z,8.70
2018-08-04T00:45:59.005Z,9.50
2018-08-04T00:48:28.368Z,8.57
2018-08-04T00:50:57.676Z,11.03
2018-08-04T00:53:27.035Z,8.63
2018-08-04T00:55:56.356Z,7.83
2018-08-04T00:58:25.681Z,9.30
2018-08-04T01:00:55.006Z,8.33
2018-08-04T01:03:24.290Z,9.13
2018-08-04T01:05:53.511Z,8.10
2018-08-04T01:08:22.890Z,9.53
2018-08-04T01:10:51.950Z,8.07
2018-08-04T01:13:21.134Z,8.67
2018-08-04T01:15:50.485Z,9.37
2018-08-04T01:18:19.833Z,8.43
2018-08-04T01:20:49.190Z,8.87
2018-08-04T01:23:18.520Z,8.00
2018-08-04T01:25:47.923Z,8.00
2018-08-04T01:28:17.263Z,8.60
2018-08-04T01:30:46.574Z,9.33
2018-08-04T01:33:15.924Z,8.93
2018-08-04T01:35:45.225Z,9.07
2018-08-04T01:38:14.166Z,9.13
2018-08-04T01:40:43.392Z,8.47
2018-08-04T01:43:12.704Z,8.53
2018-08-04T01:45:41.748Z,8.33
2018-08-04T01:48:10.941Z,9.00
2018-08-04T01:50:40.416Z,9.23
2018-08-04T01:53:09.957Z,8.90
2018-08-04T01:55:39.518Z,8.90
2018-08-04T01:58:09.008Z,8.77
2018-08-04T02:00:38.319Z,8.43
2018-08-04T02:03:07.679Z,8.67
2018-08-04T02:05:37.000Z,8.20
2018-08-04T02:08:06.341Z,8.57
2018-08-04T02:10:35.685Z,13.57
2018-08-04T02:13:05.223Z,11.97
2018-08-04T02:15:34.855Z,9.10
2018-08-04T02:18:04.319Z,10.07
2018-08-04T02:20:33.959Z,8.80
2018-08-04T02:23:02.946Z,8.87
2018-08-04T02:25:32.136Z,8.67
2018-08-04T02:28:01.143Z,8.57
2018-08-04T02:30:30.364Z,8.37
2018-08-04T02:32:59.680Z,8.73
2018-08-04T02:35:28.975Z,8.17
2018-08-04T02:37:58.300Z,9.57
2018-08-04T02:40:27.635Z,9.07
2018-08-04T02:42:56.936Z,9.10
2018-08-04T02:45:25.958Z,8.93
2018-08-04T02:47:55.149Z,8.90
2018-08-04T02:50:24.495Z,9.37
2018-08-04T02:52:53.773Z,9.50
2018-08-04T02:55:23.084Z,8.50
2018-08-04T02:57:52.481Z,9.40
2018-08-04T03:00:22.065Z,8.17
2018-08-04T03:02:51.540Z,8.63
2018-08-04T03:05:21.149Z,8.57
2018-08-04T03:07:50.519Z,9.10
2018-08-04T03:10:19.831Z,10.27
2018-08-04T03:12:49.144Z,8.97
2018-08-04T03:15:18.467Z,8.67
2018-08-04T03:17:47.799Z,9.00
2018-08-04T03:20:17.093Z,8.33
2018-08-04T03:22:46.469Z,9.20
2018-08-04T03:25:15.394Z,8.87
2018-08-04T03:27:44.614Z,9.30
2018-08-04T03:30:13.908Z,11.87
2018-08-04T03:32:43.225Z,8.87
2018-08-04T03:35:12.518Z,8.53
2018-08-04T03:37:41.819Z,11.77
2018-08-04T03:40:11.122Z,9.20
2018-08-04T03:42:40.508Z,9.37
2018-08-04T03:45:09.831Z,9.03
2018-08-04T03:47:39.145Z,9.33
2018-08-04T03:50:08.495Z,8.83
2018-08-04T03:52:37.827Z,8.70
2018-08-04T03:55:07.142Z,10.73
2018-08-04T03:57:36.544Z,8.83
2018-08-04T04:00:05.801Z,9.77
2018-08-04T04:02:35.004Z,10.27
2018-08-04T04:05:04.469Z,9.00
2018-08-04T04:07:33.466Z,9.23
2018-08-04T04:10:02.647Z,9.47
2018-08-04T04:12:31.999Z,10.00
2018-08-04T04:15:01.308Z,10.63
2018-08-04T04:17:35.050Z,9.07
2018-08-04T04:20:04.756Z,9.87
2018-08-04T04:22:34.085Z,9.00
2018-08-04T04:25:03.425Z,9.37
2018-08-04T04:27:32.779Z,9.67
2018-08-04T04:30:02.066Z,9.70
2018-08-04T04:32:31.079Z,10.80
2018-08-04T04:35:00.477Z,10.77
2018-08-04T04:37:29.456Z,10.37
2018-08-04T04:39:58.632Z,11.03
2018-08-04T04:42:28.082Z,10.13
2018-08-04T04:44:57.773Z,9.10
2018-08-04T04:47:27.345Z,10.57
2018-08-04T04:49:56.665Z,10.73
2018-08-04T04:52:25.972Z,9.67
2018-08-04T04:54:55.248Z,9.70
2018-08-04T04:57:24.598Z,9.73
2018-08-04T04:59:53.903Z,8.60
2018-08-04T05:02:23.227Z,10.10
2018-08-04T05:04:52.558Z,11.10
2018-08-04T05:07:21.887Z,11.20
2018-08-04T05:09:51.189Z,9.97
2018-08-04T05:12:20.594Z,13.23
2018-08-04T05:14:49.573Z,11.30
2018-08-04T05:17:18.748Z,10.33
2018-08-04T05:19:48.071Z,11.30
2018-08-04T05:22:17.380Z,12.53
2018-08-04T05:24:46.708Z,10.07
2018-08-04T05:27:16.064Z,9.83
2018-08-04T05:29:45.412Z,12.57
2018-08-04T05:32:14.751Z,9.73
2018-08-04T05:34:44.082Z,9.60
2018-08-04T05:37:13.371Z,12.30
2018-08-04T05:39:42.694Z,9.50
2018-08-04T05:42:11.654Z,10.60
2018-08-04T05:44:40.936Z,12.30
2018-08-04T05:47:10.237Z,9.87
2018-08-04T05:49:39.579Z,9.70
2018-08-04T05:52:08.531Z,10.13
2018-08-04T05:54:37.760Z,9.50
2018-08-04T05:57:07.068Z,9.30
2018-08-04T05:59:36.405Z,9.10
2018-08-04T06:02:05.748Z,9.80
2018-08-04T06:04:35.136Z,9.63
2018-08-04T06:07:04.451Z,9.60
2018-08-04T06:09:33.781Z,9.17
2018-08-04T06:12:03.100Z,12.23
2018-08-04T06:14:32.424Z,9.07
2018-08-04T06:17:01.754Z,9.43
2018-08-04T06:19:31.056Z,9.40
2018-08-04T06:22:00.422Z,8.97
2018-08-04T06:24:29.394Z,8.77
2018-08-04T06:26:58.583Z,9.37
2018-08-04T06:29:27.993Z,8.80
2018-08-04T06:31:57.321Z,9.47
2018-08-04T06:34:26.642Z,8.93
2018-08-04T06:36:55.948Z,8.80
2018-08-04T06:39:24.965Z,9.10
2018-08-04T06:41:54.122Z,10.57
2018-08-04T06:44:23.573Z,9.30
2018-08-04T06:46:52.896Z,8.90
2018-08-04T06:49:22.232Z,10.10
2018-08-04T06:51:51.551Z,11.43
2018-08-04T06:54:20.861Z,9.37
2018-08-04T06:56:50.219Z,9.50
2018-08-04T06:59:19.523Z,7.90
2018-08-04T07:01:48.912Z,9.67
2018-08-04T07:04:18.287Z,7.83
2018-08-04T07:06:47.252Z,9.37
2018-08-04T07:09:16.736Z,8.47
2018-08-04T07:11:46.281Z,9.50
2018-08-04T07:14:15.833Z,8.37
2018-08-04T07:16:45.369Z,9.13
2018-08-04T07:19:14.691Z,8.20
2018-08-04T07:21:44.329Z,8.50
2018-08-04T07:24:13.919Z,8.83
2018-08-04T07:26:43.095Z,7.40
2018-08-04T07:29:12.593Z,7.73
2018-08-04T07:31:42.048Z,7.30
2018-08-04T07:34:11.655Z,8.00
2018-08-04T07:36:41.225Z,8.03
2018-08-04T07:39:11.018Z,12.80
2018-08-04T07:41:40.652Z,8.93
2018-08-04T07:44:09.791Z,8.37
2018-08-04T07:46:39.278Z,8.33
2018-08-04T07:49:08.904Z,9.17
2018-08-04T07:51:38.229Z,9.67
2018-08-04T07:54:07.804Z,9.67
2018-08-04T07:56:37.450Z,9.00
2018-08-04T07:59:06.771Z,7.77
2018-08-04T08:01:36.108Z,7.87
2018-08-04T08:04:05.433Z,9.67
2018-08-04T08:06:34.756Z,10.40
2018-08-04T08:09:05.173Z,7.47
2018-08-04T08:11:34.789Z,7.73
2018-08-04T08:14:04.546Z,6.90
2018-08-04T08:16:34.140Z,7.77
2018-08-04T08:19:03.223Z,7.93
2018-08-04T08:21:32.729Z,7.47
2018-08-04T08:24:02.295Z,6.57
2018-08-04T08:26:31.950Z,7.87
2018-08-04T08:29:01.276Z,8.93
2018-08-04T08:31:30.641Z,10.50
2018-08-04T08:33:59.920Z,9.80
2018-08-04T08:36:29.266Z,11.03
2018-08-04T08:38:58.202Z,7.33
2018-08-04T08:41:27.380Z,6.93
2018-08-04T08:43:56.667Z,8.93
2018-08-04T08:46:25.989Z,8.17
2018-08-04T08:48:55.264Z,7.20
2018-08-04T08:51:24.584Z,7.23
2018-08-04T08:53:53.949Z,7.93
2018-08-04T08:56:23.211Z,6.70
2018-08-04T08:58:52.721Z,6.63
2018-08-04T09:01:22.185Z,7.67
2018-08-04T09:03:51.412Z,6.63
2018-08-04T09:06:20.802Z,6.27
2018-08-04T09:08:50.135Z,7.23
2018-08-04T09:11:19.487Z,7.03
2018-08-04T09:13:48.897Z,5.73
2018-08-04T09:16:18.496Z,10.83
2018-08-04T09:18:48.037Z,5.87
2018-08-04T09:21:17.548Z,6.00
2018-08-04T09:23:47.043Z,8.33
2018-08-04T09:26:16.672Z,7.47
2018-08-04T09:28:46.053Z,5.83
2018-08-04T09:31:15.356Z,8.57
2018-08-04T09:33:44.711Z,6.10
2018-08-04T09:36:13.638Z,4.30
2018-08-04T09:38:42.851Z,5.73
2018-08-04T09:41:12.187Z,6.43
2018-08-04T09:43:41.194Z,7.70
2018-08-04T09:46:10.387Z,5.23
2018-08-04T09:48:39.348Z,6.73
2018-08-04T09:51:08.527Z,4.43
2018-08-04T09:53:37.956Z,4.60
2018-08-04T09:56:07.276Z,8.10
2018-08-04T09:58:36.272Z,6.23
2018-08-04T10:01:10.970Z,4.80
2018-08-04T10:03:40.390Z,5.43
2018-08-04T10:06:09.706Z,5.60
2018-08-04T10:08:38.748Z,6.77
2018-08-04T10:11:07.972Z,4.90
2018-08-04T10:13:37.315Z,5.53
2018-08-04T10:16:06.604Z,4.77
2018-08-04T10:18:35.941Z,5.40
2018-08-04T10:21:05.237Z,7.93
2018-08-04T10:23:34.543Z,4.90
2018-08-04T10:26:04.016Z,6.67
2018-08-04T10:28:33.299Z,4.97
2018-08-04T10:31:02.256Z,6.97
2018-08-04T10:33:31.464Z,6.03
2018-08-04T10:36:00.753Z,5.87
2018-08-04T10:38:30.094Z,7.43
2018-08-04T10:40:59.042Z,4.77
2018-08-04T10:43:28.254Z,4.57
2018-08-04T10:45:57.543Z,5.70
2018-08-04T10:48:26.862Z,7.57
2018-08-04T10:50:56.186Z,5.77
2018-08-04T10:53:26.484Z,9.00
2018-08-04T10:55:55.709Z,7.40
2018-08-04T10:58:25.920Z,6.87
2018-08-04T11:00:55.228Z,4.67
2018-08-04T11:03:24.191Z,6.93
2018-08-04T11:05:53.464Z,5.13
2018-08-04T11:08:22.771Z,5.10
2018-08-04T11:10:52.101Z,9.90
2018-08-04T11:13:21.416Z,10.83
2018-08-04T11:15:50.820Z,5.77
2018-08-04T11:18:20.414Z,5.10
2018-08-04T11:20:50.051Z,7.10
2018-08-04T11:23:19.692Z,6.27
2018-08-04T11:25:48.987Z,4.57
2018-08-04T11:28:18.312Z,5.17
2018-08-04T11:30:47.619Z,9.27
2018-08-04T11:33:16.966Z,5.23
2018-08-04T11:35:46.259Z,4.50
2018-08-04T11:38:15.643Z,7.67
2018-08-04T11:40:45.062Z,4.97
2018-08-04T11:43:14.156Z,6.73
2018-08-04T11:45:44.660Z,5.33
2018-08-04T11:48:14.556Z,4.73
2018-08-04T11:50:44.096Z,5.73
2018-08-04T11:53:13.300Z,5.93
2018-08-04T11:55:42.709Z,4.63
2018-08-04T11:58:12.313Z,5.40
2018-08-04T12:00:41.507Z,4.17
2018-08-04T12:03:11.019Z,4.70
2018-08-04T12:05:40.369Z,4.50
2018-08-04T12:08:09.672Z,4.57
2018-08-04T12:10:38.993Z,6.20
2018-08-04T12:13:08.333Z,6.27
2018-08-04T12:15:37.661Z,5.07
2018-08-04T12:18:07.029Z,5.70
2018-08-04T12:20:36.945Z,5.03
2018-08-04T12:23:07.760Z,4.67
2018-08-04T12:25:37.138Z,4.83
2018-08-04T12:28:06.653Z,7.27
2018-08-04T12:30:36.305Z,5.93
2018-08-04T12:33:05.994Z,6.33
2018-08-04T12:35:36.252Z,4.90
2018-08-04T12:38:06.876Z,7.03
2018-08-04T12:40:39.159Z,4.83
2018-08-04T12:43:09.767Z,4.80
2018-08-04T12:45:39.760Z,4.80
2018-08-04T12:48:10.333Z,5.13
2018-08-04T12:59:53.056Z,5.97
2018-08-04T13:02:24.130Z,5.60
2018-08-04T13:04:53.882Z,6.37
2018-08-04T13:10:58.018Z,5.30
2018-08-04T13:13:51.285Z,8.37
2018-08-04T13:16:39.767Z,7.57
2018-08-04T13:19:11.900Z,4.83
2018-08-04T13:21:41.711Z,6.27
2018-08-04T13:24:13.884Z,4.57
2018-08-04T13:26:47.260Z,5.40
2018-08-04T13:29:16.760Z,4.80
2018-08-04T13:31:46.375Z,6.80
2018-08-04T13:34:15.990Z,5.03
2018-08-04T13:36:45.580Z,5.43
2018-08-04T13:39:15.058Z,5.00
2018-08-04T13:41:44.876Z,4.90
2018-08-04T13:44:14.195Z,5.13
2018-08-04T13:46:43.565Z,5.97
2018-08-04T13:49:12.503Z,5.60
2018-08-04T13:51:41.745Z,5.00
2018-08-04T13:54:11.054Z,5.77
2018-08-04T13:56:40.034Z,5.43
2018-08-04T13:59:09.295Z,4.83
2018-08-04T14:01:38.666Z,4.80
2018-08-04T14:04:07.947Z,4.50
2018-08-04T14:06:36.957Z,4.90
2018-08-04T14:09:08.158Z,7.93
2018-08-04T14:11:37.563Z,4.60
2018-08-04T14:14:06.852Z,4.73
2018-08-04T14:16:36.304Z,5.23
2018-08-04T14:19:05.287Z,5.00
2018-08-04T14:21:34.511Z,5.37
2018-08-04T14:24:03.840Z,4.63
2018-08-04T14:26:33.195Z,4.90
2018-08-04T14:29:02.175Z,4.60
2018-08-04T14:31:31.403Z,4.40
2018-08-04T14:34:00.688Z,4.00
2018-08-04T14:36:30.041Z,5.00
2018-08-04T14:38:59.346Z,5.87
2018-08-04T14:41:28.673Z,4.77
2018-08-04T14:43:58.008Z,4.23
2018-08-04T14:46:27.335Z,4.77
2018-08-04T14:48:56.684Z,4.40
2018-08-04T14:51:25.999Z,5.80
2018-08-04T14:53:55.466Z,4.40
2018-08-04T14:56:25.030Z,4.40
2018-08-04T14:58:54.316Z,4.60
2018-08-04T15:01:23.628Z,4.40
2018-08-04T15:03:52.909Z,4.97
2018-08-04T15:06:21.916Z,4.47
2018-08-04T15:08:51.110Z,4.80
2018-08-04T15:11:20.385Z,4.50
2018-08-04T15:13:49.375Z,4.63
2018-08-04T15:16:18.543Z,5.57
2018-08-04T15:18:47.903Z,5.90
2018-08-04T15:21:17.205Z,8.00
2018-08-04T15:23:46.511Z,4.40
2018-08-04T15:26:15.837Z,6.63
2018-08-04T15:28:45.213Z,4.03
2018-08-04T15:31:14.517Z,5.53
2018-08-04T15:33:43.854Z,4.27
2018-08-04T15:36:13.136Z,5.40
2018-08-04T15:38:42.479Z,5.30
2018-08-04T15:41:11.768Z,6.33
2018-08-04T15:43:41.035Z,6.43
2018-08-04T15:46:10.158Z,6.40
2018-08-04T15:48:39.604Z,4.40
2018-08-04T15:51:09.087Z,4.90
2018-08-04T15:53:38.391Z,5.37
2018-08-04T15:56:07.350Z,5.17
2018-08-04T15:58:36.594Z,4.43
2018-08-04T16:01:05.571Z,4.17
2018-08-04T16:03:35.518Z,4.83
2018-08-04T16:06:05.160Z,3.97
2018-08-04T16:08:34.680Z,5.47
2018-08-04T16:11:03.962Z,4.00
2018-08-04T16:13:33.284Z,8.00
2018-08-04T16:16:02.548Z,4.40
2018-08-04T16:18:31.865Z,5.30
2018-08-04T16:21:01.140Z,4.33
2018-08-04T16:23:30.436Z,4.33
2018-08-04T16:25:59.780Z,4.50
2018-08-04T16:28:29.185Z,4.30
2018-08-04T16:30:58.467Z,5.17
2018-08-04T16:33:27.887Z,4.13
2018-08-04T16:35:57.400Z,4.97
2018-08-04T16:38:26.773Z,5.40
2018-08-04T16:40:56.071Z,5.10
2018-08-04T16:43:25.483Z,5.33
2018-08-04T16:45:54.771Z,6.73
2018-08-04T16:48:24.097Z,6.03
2018-08-04T16:50:53.379Z,5.27
2018-08-04T16:53:22.697Z,4.30
2018-08-04T16:55:52.173Z,4.70
2018-08-04T16:58:22.026Z,4.27
2018-08-04T17:00:51.605Z,5.17
2018-08-04T17:03:21.164Z,4.40
2018-08-04T17:06:08.948Z,4.53
2018-08-04T17:08:38.361Z,4.90
2018-08-04T17:11:07.667Z,7.20
2018-08-04T17:13:37.089Z,6.30
2018-08-04T17:16:06.090Z,5.03
2018-08-04T17:18:35.392Z,5.30
2018-08-04T17:21:04.720Z,5.17
2018-08-04T17:23:34.031Z,5.63
2018-08-04T17:26:03.368Z,5.30
2018-08-04T17:28:32.850Z,7.73
2018-08-04T17:31:02.704Z,6.03
2018-08-04T17:33:31.670Z,6.20
2018-08-04T17:36:00.864Z,8.23
2018-08-04T17:38:30.152Z,7.53
2018-08-04T17:40:59.554Z,6.00
2018-08-04T17:43:28.991Z,6.23
2018-08-04T17:45:58.389Z,6.57
2018-08-04T17:48:27.361Z,5.17
2018-08-04T17:50:56.615Z,8.67
2018-08-04T17:53:25.968Z,9.73
2018-08-04T17:55:55.320Z,6.23
2018-08-04T17:58:24.613Z,5.97
2018-08-04T18:00:53.951Z,5.13
2018-08-04T18:03:23.284Z,5.73
2018-08-04T18:05:52.735Z,9.07
2018-08-04T18:08:22.089Z,5.53
2018-08-04T18:10:51.444Z,7.57
2018-08-04T18:13:20.790Z,5.53
2018-08-04T18:15:50.152Z,5.67
2018-08-04T18:18:19.538Z,5.17
2018-08-04T18:20:49.156Z,5.17
2018-08-04T18:23:18.461Z,6.67
2018-08-04T18:25:47.888Z,6.30
2018-08-04T18:28:17.203Z,5.07
2018-08-04T18:30:46.601Z,9.23
2018-08-04T18:33:15.947Z,6.23
2018-08-04T18:35:45.278Z,5.77
2018-08-04T18:38:14.611Z,6.37
2018-08-04T18:40:43.942Z,4.53
2018-08-04T18:43:13.294Z,4.73
2018-08-04T18:45:42.639Z,4.70
2018-08-04T18:48:11.968Z,4.33
2018-08-04T18:50:41.345Z,4.90
2018-08-04T18:53:10.649Z,5.47
2018-08-04T18:55:39.992Z,5.97
2018-08-04T18:58:09.544Z,4.23
2018-08-04T19:00:38.860Z,5.73
2018-08-04T19:03:08.221Z,4.90
2018-08-04T19:05:37.537Z,3.93
2018-08-04T19:08:06.512Z,5.33
2018-08-04T19:10:35.782Z,5.00
2018-08-04T19:13:05.426Z,3.33
2018-08-04T19:15:34.796Z,5.37
2018-08-04T19:18:04.119Z,4.40
2018-08-04T19:20:33.588Z,4.07
2018-08-04T19:23:03.148Z,6.43
2018-08-04T19:25:32.465Z,3.47
2018-08-04T19:28:01.461Z,4.07
2018-08-04T19:30:30.653Z,5.47
2018-08-04T19:32:59.650Z,6.03
2018-08-04T19:35:28.847Z,5.20
2018-08-04T19:37:57.841Z,6.43
2018-08-04T19:40:27.004Z,4.60
2018-08-04T19:42:56.355Z,5.87
2018-08-04T19:45:25.680Z,4.20
2018-08-04T19:47:55.104Z,4.43
2018-08-04T19:50:24.593Z,5.30
2018-08-04T19:52:54.185Z,4.97
2018-08-04T19:55:23.764Z,3.90
2018-08-04T19:57:53.349Z,6.93
2018-08-04T20:00:22.681Z,3.80
2018-08-04T20:02:52.032Z,7.37
2018-08-04T20:05:21.348Z,6.23
2018-08-04T20:07:50.743Z,7.70
2018-08-04T20:10:20.048Z,3.40
2018-08-04T20:12:49.397Z,4.77
2018-08-04T20:15:18.701Z,3.83
2018-08-04T20:17:48.301Z,3.60
2018-08-04T20:20:17.604Z,4.50
2018-08-04T20:22:47.023Z,4.43
2018-08-04T20:25:16.335Z,4.63
2018-08-04T20:27:45.748Z,4.43
2018-08-04T20:30:15.058Z,3.60
2018-08-04T20:32:44.392Z,2.83
2018-08-04T20:35:13.997Z,3.23
2018-08-04T20:37:43.373Z,3.00
2018-08-04T20:40:12.698Z,6.70
2018-08-04T20:42:41.696Z,2.80
2018-08-04T20:45:10.923Z,4.67
2018-08-04T20:47:40.280Z,7.17
2018-08-04T20:50:09.613Z,2.27
2018-08-04T20:52:38.984Z,3.50
2018-08-04T20:55:08.305Z,4.13
2018-08-04T20:57:37.709Z,4.70
2018-08-04T21:00:06.719Z,2.23
2018-08-04T21:02:35.574Z,1.83
2018-08-04T21:05:04.947Z,4.10
2018-08-04T21:07:34.375Z,4.87
2018-08-04T21:10:03.783Z,3.70
2018-08-04T21:12:33.712Z,1.73
2018-08-04T21:15:02.717Z,2.60
2018-08-04T21:17:31.571Z,5.97
2018-08-04T21:20:00.772Z,2.43
2018-08-04T21:22:30.126Z,5.80
2018-08-04T21:24:59.465Z,2.23
2018-08-04T21:27:28.877Z,2.87
2018-08-04T21:29:58.182Z,1.90
2018-08-04T21:32:27.220Z,3.53
2018-08-04T21:34:56.399Z,4.43
2018-08-04T21:37:25.789Z,1.70
2018-08-04T21:39:54.747Z,1.83
2018-08-04T21:42:23.961Z,3.53
2018-08-04T21:44:53.268Z,2.73
2018-08-04T21:47:22.599Z,2.50
2018-08-04T21:49:51.919Z,3.17
2018-08-04T21:52:21.342Z,4.07
2018-08-04T21:54:50.649Z,3.23
2018-08-04T21:57:19.958Z,2.03
2018-08-04T21:59:49.335Z,1.77
2018-08-04T22:02:18.808Z,2.30
2018-08-04T22:04:48.205Z,3.43
2018-08-04T22:07:54.638Z,1.83
2018-08-04T22:10:24.231Z,3.17
2018-08-04T22:12:53.920Z,2.00
2018-08-04T22:15:23.496Z,3.20
2018-08-04T22:17:52.865Z,4.70
2018-08-04T22:20:23.006Z,3.67
2018-08-04T22:22:52.254Z,1.80
2018-08-04T22:25:23.082Z,5.00
2018-08-04T22:27:53.000Z,1.60
2018-08-04T22:30:23.189Z,2.33
2018-08-04T22:32:53.060Z,5.67
2018-08-04T22:35:22.801Z,3.73
2018-08-04T22:37:51.842Z,2.27
2018-08-04T22:40:21.825Z,3.17
2018-08-04T22:42:51.171Z,2.10
2018-08-04T22:45:28.837Z,2.70
2018-08-04T22:47:58.181Z,3.37
2018-08-04T22:50:27.478Z,3.63
2018-08-04T22:52:56.819Z,5.03
2018-08-04T22:55:26.175Z,3.50
2018-08-04T22:57:55.536Z,2.90
2018-08-04T23:00:24.875Z,2.13
2018-08-04T23:02:54.185Z,2.37
2018-08-04T23:05:23.541Z,2.07
2018-08-04T23:07:52.831Z,2.20
2018-08-04T23:10:22.289Z,2.77
2018-08-04T23:12:51.872Z,2.83
2018-08-04T23:15:21.439Z,1.67
2018-08-04T23:17:50.948Z,2.07
2018-08-04T23:20:20.127Z,1.83
2018-08-04T23:22:49.786Z,2.60
2018-08-04T23:25:19.630Z,1.83
2018-08-04T23:27:49.960Z,2.93
2018-08-04T23:30:19.723Z,3.47
2018-08-04T23:32:49.504Z,2.40
2018-08-04T23:35:18.554Z,2.33
2018-08-04T23:37:47.977Z,2.87
2018-08-04T23:40:17.305Z,2.03
2018-08-04T23:42:46.367Z,4.40
2018-08-04T23:45:15.636Z,2.87
2018-08-04T23:47:45.208Z,2.47
2018-08-04T23:50:14.246Z,3.47
2018-08-04T23:52:43.473Z,4.33
2018-08-04T23:55:12.802Z,3.87
2018-08-04T23:57:41.777Z,5.00
